sensor_id;sensor_type;location;lat;lon;timestamp;P1;durP1;ratioP1;P2;durP2;ratioP2
12129;SDS011;6128;59.340;18.040;2022-12-18T00:00:16;8.23;;;7.40;;
12129;SDS011;6128;59.340;18.040;2022-12-18T00:02:43;9.97;;;7.33;;
12129;SDS011;6128;59.340;18.040;2022-12-18T00:05:10;7.87;;;7.07;;
12129;SDS011;6128;59.340;18.040;2022-12-18T00:07:38;7.90;;;7.10;;
12129;SDS011;6128;59.340;18.040;2022-12-18T00:10:06;8.07;;;6.80;;
12129;SDS011;6128;59.340;18.040;2022-12-18T00:12:34;9.07;;;7.93;;
12129;SDS011;6128;59.340;18.040;2022-12-18T00:15:01;8.10;;;7.03;;
12129;SDS011;6128;59.340;18.040;2022-12-18T00:17:30;8.40;;;7.47;;
12129;SDS011;6128;59.340;18.040;2022-12-18T00:19:57;9.73;;;8.00;;
12129;SDS011;6128;59.340;18.040;2022-12-18T00:22:24;8.73;;;7.83;;
12129;SDS011;6128;59.340;18.040;2022-12-18T00:24:51;8.80;;;7.87;;
12129;SDS011;6128;59.340;18.040;2022-12-18T00:27:18;8.13;;;7.33;;
12129;SDS011;6128;59.340;18.040;2022-12-18T00:29:45;9.00;;;7.30;;
12129;SDS011;6128;59.340;18.040;2022-12-18T00:32:14;7.77;;;7.00;;
12129;SDS011;6128;59.340;18.040;2022-12-18T00:34:42;11.40;;;8.67;;
12129;SDS011;6128;59.340;18.040;2022-12-18T00:37:09;8.97;;;7.30;;
12129;SDS011;6128;59.340;18.040;2022-12-18T00:39:36;11.20;;;8.07;;
12129;SDS011;6128;59.340;18.040;2022-12-18T00:42:04;8.13;;;6.97;;
12129;SDS011;6128;59.340;18.040;2022-12-18T00:44:48;8.40;;;7.43;;
12129;SDS011;6128;59.340;18.040;2022-12-18T00:47:15;8.13;;;7.33;;
12129;SDS011;6128;59.340;18.040;2022-12-18T00:49:44;12.00;;;6.97;;
12129;SDS011;6128;59.340;18.040;2022-12-18T00:52:11;11.10;;;8.03;;
12129;SDS011;6128;59.340;18.040;2022-12-18T00:54:38;8.40;;;7.23;;
12129;SDS011;6128;59.340;18.040;2022-12-18T00:57:06;12.77;;;7.80;;
12129;SDS011;6128;59.340;18.040;2022-12-18T00:59:33;8.10;;;6.77;;
12129;SDS011;6128;59.340;18.040;2022-12-18T01:02:00;8.17;;;7.37;;
12129;SDS011;6128;59.340;18.040;2022-12-18T01:04:28;8.57;;;6.97;;
12129;SDS011;6128;59.340;18.040;2022-12-18T01:06:59;8.33;;;7.50;;
12129;SDS011;6128;59.340;18.040;2022-12-18T01:09:27;8.47;;;7.50;;
12129;SDS011;6128;59.340;18.040;2022-12-18T01:11:54;8.07;;;7.27;;
12129;SDS011;6128;59.340;18.040;2022-12-18T01:14:21;8.23;;;7.13;;
12129;SDS011;6128;59.340;18.040;2022-12-18T01:16:49;7.43;;;6.73;;
12129;SDS011;6128;59.340;18.040;2022-12-18T01:19:16;9.30;;;7.40;;
12129;SDS011;6128;59.340;18.040;2022-12-18T01:21:43;8.53;;;7.57;;
12129;SDS011;6128;59.340;18.040;2022-12-18T01:24:12;7.63;;;6.83;;
12129;SDS011;6128;59.340;18.040;2022-12-18T01:26:40;8.27;;;7.47;;
12129;SDS011;6128;59.340;18.040;2022-12-18T01:29:07;7.60;;;6.30;;
12129;SDS011;6128;59.340;18.040;2022-12-18T01:31:34;10.03;;;7.23;;
12129;SDS011;6128;59.340;18.040;2022-12-18T01:34:01;6.93;;;6.20;;
12129;SDS011;6128;59.340;18.040;2022-12-18T01:36:30;8.00;;;7.00;;
12129;SDS011;6128;59.340;18.040;2022-12-18T01:38:58;9.97;;;7.20;;
12129;SDS011;6128;59.340;18.040;2022-12-18T01:41:29;8.53;;;7.53;;
12129;SDS011;6128;59.340;18.040;2022-12-18T01:47:29;8.87;;;7.20;;
12129;SDS011;6128;59.340;18.040;2022-12-18T01:50:02;8.50;;;7.37;;
12129;SDS011;6128;59.340;18.040;2022-12-18T01:52:33;10.23;;;7.13;;
12129;SDS011;6128;59.340;18.040;2022-12-18T01:55:02;8.33;;;7.43;;
12129;SDS011;6128;59.340;18.040;2022-12-18T01:57:32;8.17;;;7.37;;
12129;SDS011;6128;59.340;18.040;2022-12-18T02:00:00;8.27;;;7.47;;
12129;SDS011;6128;59.340;18.040;2022-12-18T02:02:30;8.97;;;7.43;;
12129;SDS011;6128;59.340;18.040;2022-12-18T02:04:58;9.97;;;7.87;;
12129;SDS011;6128;59.340;18.040;2022-12-18T02:07:28;7.67;;;6.87;;
12129;SDS011;6128;59.340;18.040;2022-12-18T02:10:03;11.00;;;7.83;;
12129;SDS011;6128;59.340;18.040;2022-12-18T02:12:38;10.77;;;7.23;;
12129;SDS011;6128;59.340;18.040;2022-12-18T02:15:13;8.37;;;7.57;;
12129;SDS011;6128;59.340;18.040;2022-12-18T02:17:46;11.13;;;7.53;;
12129;SDS011;6128;59.340;18.040;2022-12-18T02:20:20;7.23;;;6.53;;
12129;SDS011;6128;59.340;18.040;2022-12-18T02:28:41;8.17;;;7.33;;
12129;SDS011;6128;59.340;18.040;2022-12-18T02:31:13;7.97;;;6.57;;
12129;SDS011;6128;59.340;18.040;2022-12-18T02:33:43;10.10;;;7.47;;
12129;SDS011;6128;59.340;18.040;2022-12-18T02:36:12;9.43;;;7.43;;
12129;SDS011;6128;59.340;18.040;2022-12-18T02:38:41;8.57;;;6.97;;
12129;SDS011;6128;59.340;18.040;2022-12-18T02:41:14;7.80;;;6.70;;
12129;SDS011;6128;59.340;18.040;2022-12-18T02:43:46;8.43;;;6.63;;
12129;SDS011;6128;59.340;18.040;2022-12-18T02:46:27;7.53;;;6.53;;
12129;SDS011;6128;59.340;18.040;2022-12-18T02:49:01;8.83;;;7.13;;
12129;SDS011;6128;59.340;18.040;2022-12-18T02:51:40;6.90;;;6.13;;
12129;SDS011;6128;59.340;18.040;2022-12-18T02:54:18;7.07;;;6.37;;
12129;SDS011;6128;59.340;18.040;2022-12-18T02:56:54;7.63;;;6.83;;
12129;SDS011;6128;59.340;18.040;2022-12-18T02:59:24;7.27;;;6.57;;
12129;SDS011;6128;59.340;18.040;2022-12-18T03:02:01;6.83;;;6.13;;
12129;SDS011;6128;59.340;18.040;2022-12-18T03:04:36;7.97;;;6.77;;
12129;SDS011;6128;59.340;18.040;2022-12-18T03:07:09;7.50;;;5.90;;
12129;SDS011;6128;59.340;18.040;2022-12-18T03:09:43;9.77;;;6.37;;
12129;SDS011;6128;59.340;18.040;2022-12-18T03:12:17;7.23;;;5.73;;
12129;SDS011;6128;59.340;18.040;2022-12-18T03:14:52;6.13;;;5.37;;
12129;SDS011;6128;59.340;18.040;2022-12-18T03:17:25;7.23;;;5.80;;
12129;SDS011;6128;59.340;18.040;2022-12-18T03:19:54;7.50;;;6.30;;
12129;SDS011;6128;59.340;18.040;2022-12-18T03:22:25;7.07;;;6.37;;
12129;SDS011;6128;59.340;18.040;2022-12-18T03:24:56;7.77;;;6.93;;
12129;SDS011;6128;59.340;18.040;2022-12-18T03:27:26;6.17;;;5.53;;
12129;SDS011;6128;59.340;18.040;2022-12-18T03:30:00;7.43;;;5.80;;
12129;SDS011;6128;59.340;18.040;2022-12-18T03:32:33;7.63;;;6.13;;
12129;SDS011;6128;59.340;18.040;2022-12-18T03:35:06;6.20;;;5.50;;
12129;SDS011;6128;59.340;18.040;2022-12-18T03:37:37;6.63;;;6.00;;
12129;SDS011;6128;59.340;18.040;2022-12-18T03:40:07;6.73;;;6.00;;
12129;SDS011;6128;59.340;18.040;2022-12-18T03:42:38;6.50;;;5.90;;
12129;SDS011;6128;59.340;18.040;2022-12-18T03:45:13;6.73;;;6.13;;
12129;SDS011;6128;59.340;18.040;2022-12-18T03:47:50;7.80;;;5.77;;
12129;SDS011;6128;59.340;18.040;2022-12-18T03:50:30;8.40;;;5.97;;
12129;SDS011;6128;59.340;18.040;2022-12-18T03:53:06;7.23;;;6.47;;
12129;SDS011;6128;59.340;18.040;2022-12-18T03:55:41;6.67;;;6.03;;
12129;SDS011;6128;59.340;18.040;2022-12-18T03:58:12;7.20;;;6.43;;
12129;SDS011;6128;59.340;18.040;2022-12-18T04:00:47;7.10;;;6.40;;
12129;SDS011;6128;59.340;18.040;2022-12-18T04:03:17;6.67;;;5.97;;
12129;SDS011;6128;59.340;18.040;2022-12-18T04:05:45;7.23;;;6.37;;
12129;SDS011;6128;59.340;18.040;2022-12-18T04:08:15;5.77;;;5.27;;
12129;SDS011;6128;59.340;18.040;2022-12-18T04:10:43;6.33;;;5.73;;
12129;SDS011;6128;59.340;18.040;2022-12-18T04:13:11;8.30;;;6.30;;
12129;SDS011;6128;59.340;18.040;2022-12-18T04:15:47;6.77;;;5.87;;
12129;SDS011;6128;59.340;18.040;2022-12-18T04:18:14;7.33;;;5.60;;
12129;SDS011;6128;59.340;18.040;2022-12-18T04:20:42;6.97;;;5.87;;
12129;SDS011;6128;59.340;18.040;2022-12-18T04:23:09;7.30;;;6.50;;
12129;SDS011;6128;59.340;18.040;2022-12-18T04:25:38;7.83;;;6.20;;
12129;SDS011;6128;59.340;18.040;2022-12-18T04:28:05;7.70;;;6.07;;
12129;SDS011;6128;59.340;18.040;2022-12-18T04:30:34;6.43;;;5.80;;
12129;SDS011;6128;59.340;18.040;2022-12-18T04:33:01;6.90;;;5.80;;
12129;SDS011;6128;59.340;18.040;2022-12-18T04:35:28;6.97;;;6.27;;
12129;SDS011;6128;59.340;18.040;2022-12-18T04:37:56;6.67;;;5.97;;
12129;SDS011;6128;59.340;18.040;2022-12-18T04:40:23;9.60;;;6.20;;
12129;SDS011;6128;59.340;18.040;2022-12-18T04:42:50;6.40;;;5.50;;
12129;SDS011;6128;59.340;18.040;2022-12-18T04:45:17;6.73;;;6.07;;
12129;SDS011;6128;59.340;18.040;2022-12-18T04:47:46;6.50;;;5.23;;
12129;SDS011;6128;59.340;18.040;2022-12-18T04:50:13;7.27;;;5.80;;
12129;SDS011;6128;59.340;18.040;2022-12-18T04:52:40;8.03;;;6.13;;
12129;SDS011;6128;59.340;18.040;2022-12-18T04:55:08;6.17;;;5.57;;
12129;SDS011;6128;59.340;18.040;2022-12-18T04:57:35;6.97;;;6.27;;
12129;SDS011;6128;59.340;18.040;2022-12-18T05:00:02;7.33;;;5.83;;
12129;SDS011;6128;59.340;18.040;2022-12-18T05:02:31;6.03;;;5.43;;
12129;SDS011;6128;59.340;18.040;2022-12-18T05:04:59;6.97;;;5.60;;
12129;SDS011;6128;59.340;18.040;2022-12-18T05:07:27;6.50;;;5.90;;
12129;SDS011;6128;59.340;18.040;2022-12-18T05:09:54;6.10;;;5.30;;
12129;SDS011;6128;59.340;18.040;2022-12-18T05:12:21;6.07;;;5.10;;
12129;SDS011;6128;59.340;18.040;2022-12-18T05:14:48;7.40;;;5.90;;
12129;SDS011;6128;59.340;18.040;2022-12-18T05:17:15;7.10;;;6.03;;
12129;SDS011;6128;59.340;18.040;2022-12-18T05:19:43;6.13;;;5.53;;
12129;SDS011;6128;59.340;18.040;2022-12-18T05:22:11;6.70;;;5.10;;
12129;SDS011;6128;59.340;18.040;2022-12-18T05:24:39;7.03;;;6.33;;
12129;SDS011;6128;59.340;18.040;2022-12-18T05:27:06;7.33;;;5.50;;
12129;SDS011;6128;59.340;18.040;2022-12-18T05:29:33;5.73;;;5.23;;
12129;SDS011;6128;59.340;18.040;2022-12-18T05:32:01;6.83;;;6.13;;
12129;SDS011;6128;59.340;18.040;2022-12-18T05:34:28;7.57;;;6.07;;
12129;SDS011;6128;59.340;18.040;2022-12-18T05:36:56;8.17;;;6.53;;
12129;SDS011;6128;59.340;18.040;2022-12-18T05:39:26;6.80;;;6.00;;
12129;SDS011;6128;59.340;18.040;2022-12-18T05:41:54;6.53;;;5.73;;
12129;SDS011;6128;59.340;18.040;2022-12-18T05:44:21;6.73;;;6.03;;
12129;SDS011;6128;59.340;18.040;2022-12-18T05:46:48;6.23;;;5.60;;
12129;SDS011;6128;59.340;18.040;2022-12-18T05:49:18;6.10;;;5.50;;
12129;SDS011;6128;59.340;18.040;2022-12-18T05:51:46;6.20;;;5.60;;
12129;SDS011;6128;59.340;18.040;2022-12-18T05:54:13;6.73;;;6.03;;
12129;SDS011;6128;59.340;18.040;2022-12-18T05:56:44;6.17;;;5.57;;
12129;SDS011;6128;59.340;18.040;2022-12-18T05:59:11;6.77;;;6.00;;
12129;SDS011;6128;59.340;18.040;2022-12-18T06:01:46;7.90;;;5.63;;
12129;SDS011;6128;59.340;18.040;2022-12-18T06:04:13;7.27;;;4.97;;
12129;SDS011;6128;59.340;18.040;2022-12-18T06:06:40;6.20;;;5.60;;
12129;SDS011;6128;59.340;18.040;2022-12-18T06:09:08;6.63;;;5.13;;
12129;SDS011;6128;59.340;18.040;2022-12-18T06:11:35;7.37;;;5.77;;
12129;SDS011;6128;59.340;18.040;2022-12-18T06:14:05;5.30;;;4.60;;
12129;SDS011;6128;59.340;18.040;2022-12-18T06:16:33;6.60;;;4.90;;
12129;SDS011;6128;59.340;18.040;2022-12-18T06:19:01;8.07;;;6.17;;
12129;SDS011;6128;59.340;18.040;2022-12-18T06:21:29;6.70;;;5.13;;
12129;SDS011;6128;59.340;18.040;2022-12-18T06:23:57;6.73;;;4.83;;
12129;SDS011;6128;59.340;18.040;2022-12-18T06:26:25;7.77;;;5.57;;
12129;SDS011;6128;59.340;18.040;2022-12-18T06:28:53;6.00;;;5.27;;
12129;SDS011;6128;59.340;18.040;2022-12-18T06:31:23;7.13;;;5.67;;
12129;SDS011;6128;59.340;18.040;2022-12-18T06:33:50;7.40;;;6.27;;
12129;SDS011;6128;59.340;18.040;2022-12-18T06:36:17;7.57;;;5.43;;
12129;SDS011;6128;59.340;18.040;2022-12-18T06:38:44;5.73;;;5.03;;
12129;SDS011;6128;59.340;18.040;2022-12-18T06:41:12;6.10;;;5.40;;
12129;SDS011;6128;59.340;18.040;2022-12-18T06:43:41;5.77;;;5.20;;
12129;SDS011;6128;59.340;18.040;2022-12-18T06:46:09;6.23;;;5.30;;
12129;SDS011;6128;59.340;18.040;2022-12-18T06:48:38;6.43;;;5.73;;
12129;SDS011;6128;59.340;18.040;2022-12-18T06:51:05;7.93;;;5.63;;
12129;SDS011;6128;59.340;18.040;2022-12-18T06:53:32;6.63;;;5.93;;
12129;SDS011;6128;59.340;18.040;2022-12-18T06:56:00;6.10;;;5.50;;
12129;SDS011;6128;59.340;18.040;2022-12-18T06:58:28;5.43;;;4.90;;
12129;SDS011;6128;59.340;18.040;2022-12-18T07:00:59;6.63;;;5.97;;
12129;SDS011;6128;59.340;18.040;2022-12-18T07:03:26;7.33;;;5.57;;
12129;SDS011;6128;59.340;18.040;2022-12-18T07:05:55;7.17;;;5.90;;
12129;SDS011;6128;59.340;18.040;2022-12-18T07:08:22;7.23;;;5.87;;
12129;SDS011;6128;59.340;18.040;2022-12-18T07:10:49;6.90;;;6.20;;
12129;SDS011;6128;59.340;18.040;2022-12-18T07:13:18;6.70;;;5.97;;
12129;SDS011;6128;59.340;18.040;2022-12-18T07:15:45;7.13;;;6.43;;
12129;SDS011;6128;59.340;18.040;2022-12-18T07:18:12;6.53;;;5.40;;
12129;SDS011;6128;59.340;18.040;2022-12-18T07:20:39;6.57;;;5.63;;
12129;SDS011;6128;59.340;18.040;2022-12-18T07:23:08;6.97;;;6.23;;
12129;SDS011;6128;59.340;18.040;2022-12-18T07:26:01;6.70;;;6.00;;
12129;SDS011;6128;59.340;18.040;2022-12-18T07:28:29;6.70;;;6.00;;
12129;SDS011;6128;59.340;18.040;2022-12-18T07:30:56;6.67;;;5.93;;
12129;SDS011;6128;59.340;18.040;2022-12-18T07:33:24;6.57;;;5.97;;
12129;SDS011;6128;59.340;18.040;2022-12-18T07:35:51;8.27;;;6.50;;
12129;SDS011;6128;59.340;18.040;2022-12-18T07:38:20;6.77;;;5.43;;
12129;SDS011;6128;59.340;18.040;2022-12-18T07:40:47;7.87;;;6.33;;
12129;SDS011;6128;59.340;18.040;2022-12-18T07:43:15;8.37;;;6.60;;
12129;SDS011;6128;59.340;18.040;2022-12-18T07:45:42;6.70;;;6.00;;
12129;SDS011;6128;59.340;18.040;2022-12-18T07:48:09;8.30;;;6.53;;
12129;SDS011;6128;59.340;18.040;2022-12-18T07:50:37;6.80;;;6.10;;
12129;SDS011;6128;59.340;18.040;2022-12-18T07:53:04;8.90;;;7.27;;
12129;SDS011;6128;59.340;18.040;2022-12-18T07:55:33;7.43;;;6.13;;
12129;SDS011;6128;59.340;18.040;2022-12-18T07:58:01;8.73;;;7.13;;
12129;SDS011;6128;59.340;18.040;2022-12-18T08:00:28;7.50;;;6.43;;
12129;SDS011;6128;59.340;18.040;2022-12-18T08:02:55;6.83;;;6.13;;
12129;SDS011;6128;59.340;18.040;2022-12-18T08:05:23;7.80;;;7.00;;
12129;SDS011;6128;59.340;18.040;2022-12-18T08:07:58;7.13;;;6.43;;
12129;SDS011;6128;59.340;18.040;2022-12-18T08:10:27;7.13;;;6.30;;
12129;SDS011;6128;59.340;18.040;2022-12-18T08:12:55;6.83;;;6.13;;
12129;SDS011;6128;59.340;18.040;2022-12-18T08:15:23;7.07;;;6.17;;
12129;SDS011;6128;59.340;18.040;2022-12-18T08:17:50;9.10;;;7.23;;
12129;SDS011;6128;59.340;18.040;2022-12-18T08:20:17;9.00;;;6.33;;
12129;SDS011;6128;59.340;18.040;2022-12-18T08:22:44;7.27;;;6.50;;
12129;SDS011;6128;59.340;18.040;2022-12-18T08:25:11;9.23;;;7.20;;
12129;SDS011;6128;59.340;18.040;2022-12-18T08:27:39;7.37;;;6.33;;
12129;SDS011;6128;59.340;18.040;2022-12-18T08:30:08;8.03;;;7.20;;
12129;SDS011;6128;59.340;18.040;2022-12-18T08:32:36;7.60;;;6.80;;
12129;SDS011;6128;59.340;18.040;2022-12-18T08:35:04;7.33;;;6.63;;
12129;SDS011;6128;59.340;18.040;2022-12-18T08:37:33;7.30;;;6.60;;
12129;SDS011;6128;59.340;18.040;2022-12-18T08:40:00;8.83;;;6.53;;
12129;SDS011;6128;59.340;18.040;2022-12-18T08:42:30;7.47;;;6.60;;
12129;SDS011;6128;59.340;18.040;2022-12-18T08:45:24;8.97;;;6.60;;
12129;SDS011;6128;59.340;18.040;2022-12-18T08:47:51;8.40;;;6.53;;
12129;SDS011;6128;59.340;18.040;2022-12-18T08:50:18;7.40;;;6.70;;
12129;SDS011;6128;59.340;18.040;2022-12-18T08:52:46;8.10;;;6.93;;
12129;SDS011;6128;59.340;18.040;2022-12-18T08:55:14;8.60;;;6.87;;
12129;SDS011;6128;59.340;18.040;2022-12-18T08:57:41;9.77;;;6.40;;
12129;SDS011;6128;59.340;18.040;2022-12-18T09:00:09;9.37;;;7.43;;
12129;SDS011;6128;59.340;18.040;2022-12-18T09:02:39;8.77;;;6.77;;
12129;SDS011;6128;59.340;18.040;2022-12-18T09:05:06;7.83;;;6.97;;
12129;SDS011;6128;59.340;18.040;2022-12-18T09:07:34;7.87;;;7.07;;
12129;SDS011;6128;59.340;18.040;2022-12-18T09:10:01;7.47;;;6.60;;
12129;SDS011;6128;59.340;18.040;2022-12-18T09:12:29;7.63;;;6.73;;
12129;SDS011;6128;59.340;18.040;2022-12-18T09:14:56;7.40;;;6.47;;
12129;SDS011;6128;59.340;18.040;2022-12-18T09:17:23;6.37;;;5.57;;
12129;SDS011;6128;59.340;18.040;2022-12-18T09:19:54;8.77;;;7.83;;
12129;SDS011;6128;59.340;18.040;2022-12-18T09:22:21;9.00;;;6.87;;
12129;SDS011;6128;59.340;18.040;2022-12-18T09:24:48;6.90;;;6.23;;
12129;SDS011;6128;59.340;18.040;2022-12-18T09:27:16;6.37;;;5.77;;
12129;SDS011;6128;59.340;18.040;2022-12-18T09:29:47;7.13;;;6.43;;
12129;SDS011;6128;59.340;18.040;2022-12-18T09:32:14;7.07;;;6.37;;
12129;SDS011;6128;59.340;18.040;2022-12-18T09:34:41;8.20;;;6.33;;
12129;SDS011;6128;59.340;18.040;2022-12-18T09:37:10;7.07;;;6.37;;
12129;SDS011;6128;59.340;18.040;2022-12-18T09:39:37;6.60;;;6.00;;
12129;SDS011;6128;59.340;18.040;2022-12-18T09:42:05;6.57;;;5.90;;
12129;SDS011;6128;59.340;18.040;2022-12-18T09:44:33;7.57;;;6.50;;
12129;SDS011;6128;59.340;18.040;2022-12-18T09:47:03;6.77;;;6.03;;
12129;SDS011;6128;59.340;18.040;2022-12-18T09:49:39;7.10;;;5.47;;
12129;SDS011;6128;59.340;18.040;2022-12-18T09:52:19;6.57;;;5.50;;
12129;SDS011;6128;59.340;18.040;2022-12-18T09:54:52;7.70;;;5.97;;
12129;SDS011;6128;59.340;18.040;2022-12-18T09:57:24;7.30;;;6.60;;
12129;SDS011;6128;59.340;18.040;2022-12-18T09:59:53;8.27;;;6.20;;
12129;SDS011;6128;59.340;18.040;2022-12-18T10:02:25;8.13;;;6.77;;
12129;SDS011;6128;59.340;18.040;2022-12-18T10:05:02;6.50;;;5.90;;
12129;SDS011;6128;59.340;18.040;2022-12-18T10:07:35;6.93;;;6.30;;
12129;SDS011;6128;59.340;18.040;2022-12-18T10:10:19;5.97;;;5.30;;
12129;SDS011;6128;59.340;18.040;2022-12-18T10:12:55;9.57;;;6.90;;
12129;SDS011;6128;59.340;18.040;2022-12-18T10:15:30;6.17;;;5.50;;
12129;SDS011;6128;59.340;18.040;2022-12-18T10:18:05;7.83;;;7.00;;
12129;SDS011;6128;59.340;18.040;2022-12-18T10:20:45;7.13;;;6.43;;
12129;SDS011;6128;59.340;18.040;2022-12-18T10:23:17;10.63;;;6.90;;
12129;SDS011;6128;59.340;18.040;2022-12-18T10:25:51;7.63;;;6.93;;
12129;SDS011;6128;59.340;18.040;2022-12-18T10:28:21;6.77;;;5.77;;
12129;SDS011;6128;59.340;18.040;2022-12-18T10:30:50;8.73;;;6.13;;
12129;SDS011;6128;59.340;18.040;2022-12-18T10:33:18;9.77;;;6.60;;
12129;SDS011;6128;59.340;18.040;2022-12-18T10:35:48;6.77;;;6.07;;
12129;SDS011;6128;59.340;18.040;2022-12-18T10:38:27;7.00;;;6.30;;
12129;SDS011;6128;59.340;18.040;2022-12-18T10:40:56;8.47;;;6.50;;
12129;SDS011;6128;59.340;18.040;2022-12-18T10:43:26;8.40;;;5.83;;
12129;SDS011;6128;59.340;18.040;2022-12-18T10:45:58;8.83;;;6.37;;
12129;SDS011;6128;59.340;18.040;2022-12-18T10:48:41;6.57;;;5.63;;
12129;SDS011;6128;59.340;18.040;2022-12-18T10:51:22;6.53;;;5.93;;
12129;SDS011;6128;59.340;18.040;2022-12-18T10:53:54;8.27;;;6.43;;
12129;SDS011;6128;59.340;18.040;2022-12-18T10:56:23;7.73;;;6.93;;
12129;SDS011;6128;59.340;18.040;2022-12-18T10:58:57;8.50;;;6.50;;
12129;SDS011;6128;59.340;18.040;2022-12-18T11:01:25;7.10;;;6.40;;
12129;SDS011;6128;59.340;18.040;2022-12-18T11:04:00;7.63;;;6.33;;
12129;SDS011;6128;59.340;18.040;2022-12-18T11:06:29;7.67;;;6.73;;
12129;SDS011;6128;59.340;18.040;2022-12-18T11:09:20;6.70;;;5.87;;
12129;SDS011;6128;59.340;18.040;2022-12-18T11:11:49;7.20;;;6.50;;
12129;SDS011;6128;59.340;18.040;2022-12-18T11:14:20;7.37;;;6.20;;
12129;SDS011;6128;59.340;18.040;2022-12-18T11:16:49;6.83;;;6.23;;
12129;SDS011;6128;59.340;18.040;2022-12-18T11:19:23;9.97;;;6.20;;
12129;SDS011;6128;59.340;18.040;2022-12-18T11:21:56;6.67;;;6.07;;
12129;SDS011;6128;59.340;18.040;2022-12-18T11:24:27;6.20;;;5.60;;
12129;SDS011;6128;59.340;18.040;2022-12-18T11:26:57;7.07;;;6.37;;
12129;SDS011;6128;59.340;18.040;2022-12-18T11:29:31;8.13;;;5.90;;
12129;SDS011;6128;59.340;18.040;2022-12-18T11:32:20;6.40;;;5.80;;
12129;SDS011;6128;59.340;18.040;2022-12-18T11:35:04;6.37;;;5.67;;
12129;SDS011;6128;59.340;18.040;2022-12-18T11:37:46;7.67;;;6.37;;
12129;SDS011;6128;59.340;18.040;2022-12-18T11:40:30;9.33;;;6.07;;
12129;SDS011;6128;59.340;18.040;2022-12-18T11:43:02;6.53;;;5.93;;
12129;SDS011;6128;59.340;18.040;2022-12-18T11:45:38;7.40;;;5.20;;
12129;SDS011;6128;59.340;18.040;2022-12-18T11:48:21;6.00;;;5.40;;
12129;SDS011;6128;59.340;18.040;2022-12-18T11:50:52;7.83;;;5.80;;
12129;SDS011;6128;59.340;18.040;2022-12-18T11:53:21;6.90;;;5.53;;
12129;SDS011;6128;59.340;18.040;2022-12-18T11:55:53;5.83;;;5.27;;
12129;SDS011;6128;59.340;18.040;2022-12-18T12:01:23;6.20;;;5.17;;
12129;SDS011;6128;59.340;18.040;2022-12-18T12:04:01;6.30;;;5.70;;
12129;SDS011;6128;59.340;18.040;2022-12-18T12:06:44;6.13;;;5.50;;
12129;SDS011;6128;59.340;18.040;2022-12-18T12:09:17;7.40;;;5.87;;
12129;SDS011;6128;59.340;18.040;2022-12-18T12:11:56;6.73;;;5.33;;
12129;SDS011;6128;59.340;18.040;2022-12-18T12:14:37;6.37;;;5.33;;
12129;SDS011;6128;59.340;18.040;2022-12-18T12:17:14;6.27;;;5.40;;
12129;SDS011;6128;59.340;18.040;2022-12-18T12:19:51;6.77;;;5.70;;
12129;SDS011;6128;59.340;18.040;2022-12-18T12:22:29;7.47;;;6.27;;
12129;SDS011;6128;59.340;18.040;2022-12-18T12:25:09;5.83;;;5.23;;
12129;SDS011;6128;59.340;18.040;2022-12-18T12:27:49;6.87;;;5.60;;
12129;SDS011;6128;59.340;18.040;2022-12-18T12:30:29;7.30;;;5.60;;
12129;SDS011;6128;59.340;18.040;2022-12-18T12:33:08;7.70;;;6.50;;
12129;SDS011;6128;59.340;18.040;2022-12-18T12:35:44;7.97;;;5.83;;
12129;SDS011;6128;59.340;18.040;2022-12-18T12:38:19;5.77;;;5.17;;
12129;SDS011;6128;59.340;18.040;2022-12-18T12:40:51;6.50;;;5.13;;
12129;SDS011;6128;59.340;18.040;2022-12-18T12:43:41;9.13;;;5.80;;
12129;SDS011;6128;59.340;18.040;2022-12-18T12:46:15;7.20;;;5.57;;
12129;SDS011;6128;59.340;18.040;2022-12-18T12:48:52;6.93;;;5.57;;
12129;SDS011;6128;59.340;18.040;2022-12-18T12:51:27;8.27;;;5.17;;
12129;SDS011;6128;59.340;18.040;2022-12-18T12:53:57;8.57;;;5.20;;
12129;SDS011;6128;59.340;18.040;2022-12-18T12:56:30;8.33;;;5.40;;
12129;SDS011;6128;59.340;18.040;2022-12-18T12:59:08;5.87;;;5.17;;
12129;SDS011;6128;59.340;18.040;2022-12-18T13:01:43;7.93;;;4.97;;
12129;SDS011;6128;59.340;18.040;2022-12-18T13:04:21;6.97;;;5.47;;
12129;SDS011;6128;59.340;18.040;2022-12-18T13:06:54;7.67;;;5.23;;
12129;SDS011;6128;59.340;18.040;2022-12-18T13:09:29;5.70;;;4.57;;
12129;SDS011;6128;59.340;18.040;2022-12-18T13:12:03;5.00;;;4.40;;
12129;SDS011;6128;59.340;18.040;2022-12-18T13:14:56;8.57;;;5.23;;
12129;SDS011;6128;59.340;18.040;2022-12-18T13:17:39;7.67;;;4.90;;
12129;SDS011;6128;59.340;18.040;2022-12-18T13:20:07;6.03;;;5.23;;
12129;SDS011;6128;59.340;18.040;2022-12-18T13:22:37;5.60;;;3.83;;
12129;SDS011;6128;59.340;18.040;2022-12-18T13:27:59;7.73;;;4.50;;
12129;SDS011;6128;59.340;18.040;2022-12-18T13:39:30;5.70;;;4.50;;
12129;SDS011;6128;59.340;18.040;2022-12-18T13:48:17;5.50;;;4.00;;
12129;SDS011;6128;59.340;18.040;2022-12-18T13:50:53;5.47;;;3.97;;
12129;SDS011;6128;59.340;18.040;2022-12-18T13:53:25;6.23;;;3.87;;
12129;SDS011;6128;59.340;18.040;2022-12-18T13:55:55;5.77;;;4.17;;
12129;SDS011;6128;59.340;18.040;2022-12-18T13:58:22;4.43;;;3.83;;
12129;SDS011;6128;59.340;18.040;2022-12-18T14:00:49;5.80;;;4.07;;
12129;SDS011;6128;59.340;18.040;2022-12-18T14:03:22;6.47;;;3.47;;
12129;SDS011;6128;59.340;18.040;2022-12-18T14:05:53;4.53;;;3.63;;
12129;SDS011;6128;59.340;18.040;2022-12-18T14:08:27;4.20;;;3.37;;
12129;SDS011;6128;59.340;18.040;2022-12-18T14:11:00;4.70;;;3.50;;
12129;SDS011;6128;59.340;18.040;2022-12-18T14:13:28;7.43;;;3.27;;
12129;SDS011;6128;59.340;18.040;2022-12-18T14:15:57;5.90;;;3.40;;
12129;SDS011;6128;59.340;18.040;2022-12-18T14:18:29;7.80;;;3.93;;
12129;SDS011;6128;59.340;18.040;2022-12-18T14:21:04;5.77;;;3.63;;
12129;SDS011;6128;59.340;18.040;2022-12-18T14:23:32;4.03;;;3.33;;
12129;SDS011;6128;59.340;18.040;2022-12-18T14:26:01;3.87;;;3.20;;
12129;SDS011;6128;59.340;18.040;2022-12-18T14:28:29;4.03;;;3.10;;
12129;SDS011;6128;59.340;18.040;2022-12-18T14:30:57;7.67;;;3.77;;
12129;SDS011;6128;59.340;18.040;2022-12-18T14:33:25;5.03;;;3.53;;
12129;SDS011;6128;59.340;18.040;2022-12-18T14:35:56;3.97;;;3.17;;
12129;SDS011;6128;59.340;18.040;2022-12-18T14:38:27;5.83;;;3.17;;
12129;SDS011;6128;59.340;18.040;2022-12-18T14:40:58;4.87;;;2.70;;
12129;SDS011;6128;59.340;18.040;2022-12-18T14:43:28;5.37;;;2.80;;
12129;SDS011;6128;59.340;18.040;2022-12-18T14:45:57;5.40;;;3.10;;
12129;SDS011;6128;59.340;18.040;2022-12-18T14:48:33;5.20;;;3.17;;
12129;SDS011;6128;59.340;18.040;2022-12-18T14:51:03;5.70;;;3.30;;
12129;SDS011;6128;59.340;18.040;2022-12-18T14:53:36;5.53;;;3.20;;
12129;SDS011;6128;59.340;18.040;2022-12-18T14:56:15;4.63;;;2.70;;
12129;SDS011;6128;59.340;18.040;2022-12-18T14:58:45;5.47;;;3.07;;
12129;SDS011;6128;59.340;18.040;2022-12-18T15:01:21;4.97;;;3.10;;
12129;SDS011;6128;59.340;18.040;2022-12-18T15:03:52;5.13;;;3.47;;
12129;SDS011;6128;59.340;18.040;2022-12-18T15:06:30;4.80;;;3.07;;
12129;SDS011;6128;59.340;18.040;2022-12-18T15:09:00;6.43;;;3.10;;
12129;SDS011;6128;59.340;18.040;2022-12-18T15:14:24;5.17;;;3.20;;
12129;SDS011;6128;59.340;18.040;2022-12-18T15:17:00;6.13;;;2.90;;
12129;SDS011;6128;59.340;18.040;2022-12-18T15:19:35;5.23;;;3.57;;
12129;SDS011;6128;59.340;18.040;2022-12-18T15:22:13;5.07;;;3.00;;
12129;SDS011;6128;59.340;18.040;2022-12-18T15:24:45;4.60;;;3.10;;
12129;SDS011;6128;59.340;18.040;2022-12-18T15:27:31;4.30;;;2.80;;
12129;SDS011;6128;59.340;18.040;2022-12-18T15:30:17;3.93;;;2.57;;
12129;SDS011;6128;59.340;18.040;2022-12-18T15:32:46;4.67;;;2.13;;
12129;SDS011;6128;59.340;18.040;2022-12-18T15:35:17;4.20;;;2.60;;
12129;SDS011;6128;59.340;18.040;2022-12-18T15:37:45;5.23;;;2.70;;
12129;SDS011;6128;59.340;18.040;2022-12-18T15:40:13;4.97;;;2.60;;
12129;SDS011;6128;59.340;18.040;2022-12-18T15:42:41;3.97;;;2.37;;